createdAt,value
2024-03-12T00:01:27.881Z,6.84
2024-03-12T00:03:56.606Z,6.69
2024-03-12T00:06:23.925Z,6.46
2024-03-12T00:08:50.900Z,6.32
2024-03-12T00:11:17.970Z,6.04
2024-03-12T00:13:44.753Z,5.96
2024-03-12T00:16:11.808Z,5.91
2024-03-12T00:18:41.754Z,6.08
2024-03-12T00:21:09.092Z,5.90
2024-03-12T00:23:35.897Z,5.73
2024-03-12T00:26:04.666Z,5.55
2024-03-12T00:28:34.854Z,5.44
2024-03-12T00:31:01.711Z,5.45
2024-03-12T00:33:28.733Z,5.48
2024-03-12T00:35:56.524Z,5.66
2024-03-12T00:38:23.474Z,5.77
2024-03-12T00:40:51.941Z,5.69
2024-03-12T00:43:19.386Z,5.50
2024-03-12T00:45:46.484Z,5.29
2024-03-12T00:48:15.042Z,5.36
2024-03-12T00:50:44.309Z,5.40
2024-03-12T00:53:13.011Z,5.45
2024-03-12T00:55:42.197Z,5.46
2024-03-12T00:58:12.486Z,5.55
2024-03-12T01:00:41.903Z,5.22
2024-03-12T01:03:13.411Z,5.16
2024-03-12T01:05:40.965Z,5.20
2024-03-12T01:08:09.449Z,5.19
2024-03-12T01:10:37.135Z,5.18
2024-03-12T01:13:11.006Z,5.09
2024-03-12T01:15:39.641Z,5.11
2024-03-12T01:18:10.261Z,4.97
2024-03-12T01:20:37.804Z,4.86
2024-03-12T01:23:07.291Z,4.70
2024-03-12T01:25:37.580Z,4.62
2024-03-12T01:28:08.005Z,4.63
2024-03-12T01:30:36.510Z,4.64
2024-03-12T01:33:07.599Z,4.80
2024-03-12T01:35:40.504Z,4.86
2024-03-12T01:38:11.461Z,4.98
2024-03-12T01:40:39.358Z,4.99
2024-03-12T01:43:08.651Z,5.05
2024-03-12T01:45:36.728Z,5.10
2024-03-12T01:48:09.832Z,5.15
2024-03-12T01:50:38.144Z,5.18
2024-03-12T01:53:09.033Z,5.33
2024-03-12T01:55:44.719Z,5.37
2024-03-12T01:58:16.094Z,5.39
2024-03-12T02:00:44.184Z,5.27
2024-03-12T02:03:11.058Z,5.17
2024-03-12T02:05:38.119Z,5.02
2024-03-12T02:08:05.434Z,5.06
2024-03-12T02:10:32.139Z,5.10
2024-03-12T02:12:58.979Z,5.22
2024-03-12T02:15:25.959Z,5.25
2024-03-12T02:17:55.704Z,5.49
2024-03-12T02:20:23.326Z,5.51
2024-03-12T02:22:57.128Z,5.74
2024-03-12T02:25:24.692Z,5.82
2024-03-12T02:27:52.666Z,5.96
2024-03-12T02:30:19.900Z,6.01
2024-03-12T02:32:48.748Z,5.82
2024-03-12T02:35:17.517Z,5.78
2024-03-12T02:37:44.925Z,5.74
2024-03-12T02:40:14.839Z,5.61
2024-03-12T02:42:43.063Z,5.46
2024-03-12T02:45:17.270Z,5.43
2024-03-12T02:47:46.100Z,5.46
2024-03-12T02:50:13.692Z,5.47
2024-03-12T02:52:43.581Z,5.47
2024-03-12T02:55:10.986Z,5.36
2024-03-12T02:57:38.404Z,5.20
2024-03-12T03:00:13.711Z,5.19
2024-03-12T03:02:42.804Z,5.12
2024-03-12T03:05:12.900Z,5.08
2024-03-12T03:07:43.813Z,4.94
2024-03-12T03:10:12.630Z,4.91
2024-03-12T03:12:40.724Z,4.88
2024-03-12T03:15:09.040Z,4.90
2024-03-12T03:17:36.979Z,5.05
2024-03-12T03:20:06.373Z,4.84
2024-03-12T03:22:33.439Z,4.84
2024-03-12T03:25:00.257Z,4.78
2024-03-12T03:27:27.021Z,4.84
2024-03-12T03:29:58.426Z,4.49
2024-03-12T03:32:28.532Z,4.27
2024-03-12T03:34:55.233Z,4.13
2024-03-12T03:37:22.242Z,4.07
2024-03-12T03:39:49.137Z,3.95
2024-03-12T03:42:16.966Z,3.87
2024-03-12T03:44:43.872Z,3.86
2024-03-12T03:47:10.736Z,3.78
2024-03-12T03:49:37.740Z,3.73
2024-03-12T03:52:04.852Z,3.58
2024-03-12T03:54:32.351Z,3.39
2024-03-12T03:56:59.084Z,3.43
2024-03-12T03:59:27.024Z,3.59
2024-03-12T04:01:54.073Z,3.52
2024-03-12T04:04:20.791Z,3.46
2024-03-12T04:06:48.380Z,3.48
2024-03-12T04:09:16.524Z,3.39
2024-03-12T04:11:45.238Z,3.21
2024-03-12T04:14:12.123Z,3.15
2024-03-12T04:16:39.043Z,3.16
2024-03-12T04:19:06.411Z,3.05
2024-03-12T04:21:33.357Z,2.89
2024-03-12T04:24:00.147Z,2.91
2024-03-12T04:26:30.246Z,2.88
2024-03-12T04:28:57.337Z,2.81
2024-03-12T04:31:25.139Z,2.76
2024-03-12T04:33:54.203Z,2.75
2024-03-12T04:36:24.426Z,2.74
2024-03-12T04:38:51.393Z,2.73
2024-03-12T04:41:22.057Z,2.68
2024-03-12T04:43:49.628Z,2.58
2024-03-12T04:46:16.505Z,2.40
2024-03-12T04:48:44.480Z,2.37
2024-03-12T04:51:12.359Z,2.20
2024-03-12T04:53:39.318Z,1.91
2024-03-12T04:56:06.473Z,1.62
2024-03-12T04:58:33.617Z,1.52
2024-03-12T05:01:02.488Z,1.57
2024-03-12T05:03:29.409Z,1.74
2024-03-12T05:05:58.504Z,1.89
2024-03-12T05:08:26.910Z,2.11
2024-03-12T05:10:53.884Z,2.28
2024-03-12T05:13:22.877Z,2.39
2024-03-12T05:15:50.228Z,2.45
2024-03-12T05:18:16.971Z,2.55
2024-03-12T05:20:43.729Z,2.62
2024-03-12T05:23:12.161Z,2.77
2024-03-12T05:25:45.942Z,2.83
2024-03-12T05:28:14.267Z,3.13
2024-03-12T05:30:42.674Z,3.04
2024-03-12T05:33:16.493Z,2.99
2024-03-12T05:35:51.207Z,3.17
2024-03-12T05:38:33.369Z,3.20
2024-03-12T05:41:10.135Z,3.15
2024-03-12T05:43:56.421Z,3.22
2024-03-12T05:46:43.794Z,2.94
2024-03-12T05:49:11.297Z,2.72
2024-03-12T05:51:39.304Z,2.73
2024-03-12T05:54:06.692Z,2.69
2024-03-12T05:56:33.815Z,2.68
2024-03-12T05:59:01.131Z,2.76
2024-03-12T06:01:29.458Z,2.80
2024-03-12T06:03:57.047Z,2.71
2024-03-12T06:06:23.992Z,2.65
2024-03-12T06:08:50.901Z,2.71
2024-03-12T06:11:18.428Z,2.81
2024-03-12T06:13:45.415Z,2.93
2024-03-12T06:16:12.737Z,3.06
2024-03-12T06:18:40.553Z,3.05
2024-03-12T06:21:08.080Z,3.06
2024-03-12T06:23:34.830Z,2.92
2024-03-12T06:26:05.354Z,3.01
2024-03-12T06:28:33.311Z,2.96
2024-03-12T06:31:00.738Z,3.00
2024-03-12T06:33:28.579Z,3.16
2024-03-12T06:35:55.436Z,3.36
2024-03-12T06:38:22.528Z,3.57
2024-03-12T06:40:49.815Z,3.88
2024-03-12T06:43:19.308Z,4.00
2024-03-12T06:45:46.431Z,4.33
2024-03-12T06:48:15.098Z,4.71
2024-03-12T06:50:42.492Z,4.57
2024-03-12T06:53:09.318Z,4.51
2024-03-12T06:55:37.310Z,4.51
2024-03-12T06:58:06.454Z,4.45
2024-03-12T07:00:41.727Z,4.38
2024-03-12T07:03:09.039Z,4.22
2024-03-12T07:05:38.236Z,4.31
2024-03-12T07:08:08.983Z,4.51
2024-03-12T07:10:38.564Z,4.72
2024-03-12T07:13:09.207Z,4.66
2024-03-12T07:15:41.191Z,4.61
2024-03-12T07:18:09.297Z,4.76
2024-03-12T07:20:36.794Z,4.95
2024-03-12T07:23:04.483Z,5.28
2024-03-12T07:25:34.572Z,5.31
2024-03-12T07:28:08.025Z,5.50
2024-03-12T07:30:36.903Z,5.53
2024-03-12T07:33:08.052Z,5.45
2024-03-12T07:35:35.880Z,5.37
2024-03-12T07:38:04.841Z,5.47
2024-03-12T07:40:33.338Z,5.69
2024-03-12T07:43:00.892Z,5.97
2024-03-12T07:45:28.885Z,6.03
2024-03-12T07:47:57.531Z,5.97
2024-03-12T07:50:29.974Z,6.07
2024-03-12T07:52:57.362Z,6.13
2024-03-12T07:55:24.454Z,6.21
2024-03-12T07:57:51.846Z,6.32
2024-03-12T08:00:21.846Z,6.33
2024-03-12T08:02:48.780Z,6.34
2024-03-12T08:05:15.550Z,6.27
2024-03-12T08:07:45.730Z,6.37
2024-03-12T08:10:13.834Z,6.63
2024-03-12T08:12:41.411Z,6.75
2024-03-12T08:15:10.283Z,6.94
2024-03-12T08:17:39.376Z,6.96
2024-03-12T08:20:07.911Z,6.97
2024-03-12T08:22:34.711Z,7.17
2024-03-12T08:25:02.617Z,7.06
2024-03-12T08:27:29.619Z,7.17
2024-03-12T08:29:58.782Z,7.26
2024-03-12T08:32:26.789Z,7.21
2024-03-12T08:34:53.908Z,7.31
2024-03-12T08:37:23.850Z,7.57
2024-03-12T08:39:51.603Z,8.03
2024-03-12T08:42:18.725Z,8.15
2024-03-12T08:44:45.747Z,8.40
2024-03-12T08:47:13.048Z,8.51
2024-03-12T08:49:39.858Z,8.73
2024-03-12T08:52:06.692Z,8.68
2024-03-12T08:54:34.451Z,8.13
2024-03-12T08:57:02.942Z,8.38
2024-03-12T08:59:30.754Z,8.40
2024-03-12T09:02:00.766Z,8.53
2024-03-12T09:04:32.001Z,8.38
2024-03-12T09:06:59.078Z,8.19
2024-03-12T09:09:28.187Z,8.27
2024-03-12T09:11:57.327Z,8.46
2024-03-12T09:14:24.910Z,8.60
2024-03-12T09:16:54.997Z,9.24
2024-03-12T09:19:28.405Z,9.34
2024-03-12T09:21:55.569Z,10.06
2024-03-12T09:24:22.274Z,10.47
2024-03-12T09:26:49.268Z,10.74
2024-03-12T09:29:16.242Z,10.67
2024-03-12T09:31:43.854Z,10.53
2024-03-12T09:34:12.101Z,10.31
2024-03-12T09:36:39.151Z,9.71
2024-03-12T09:39:12.563Z,9.37
2024-03-12T09:41:46.466Z,9.45
2024-03-12T09:44:13.706Z,9.66
2024-03-12T09:46:42.587Z,9.75
2024-03-12T09:49:14.634Z,9.60
2024-03-12T09:51:43.203Z,9.82
2024-03-12T09:54:13.248Z,9.74
2024-03-12T09:56:41.614Z,9.67
2024-03-12T09:59:09.603Z,9.53
2024-03-12T10:01:39.922Z,9.49
2024-03-12T10:04:08.030Z,9.50
2024-03-12T10:06:35.178Z,9.74
2024-03-12T10:09:02.438Z,9.68
2024-03-12T10:11:31.656Z,9.59
2024-03-12T10:14:00.190Z,9.56
2024-03-12T10:16:29.145Z,9.51
2024-03-12T10:19:11.368Z,9.23
2024-03-12T10:21:39.053Z,9.43
2024-03-12T10:24:19.143Z,9.67
2024-03-12T10:26:46.531Z,9.61
2024-03-12T10:29:15.407Z,9.74
2024-03-12T10:31:45.312Z,9.67
2024-03-12T10:34:21.874Z,9.41
2024-03-12T10:36:51.712Z,9.56
2024-03-12T10:39:30.110Z,9.64
2024-03-12T10:42:00.960Z,9.52
2024-03-12T10:44:30.142Z,9.48
2024-03-12T10:46:59.846Z,9.79
2024-03-12T10:49:27.952Z,9.80
2024-03-12T10:51:56.721Z,9.65
2024-03-12T10:54:24.253Z,9.65
2024-03-12T10:56:51.561Z,9.66
2024-03-12T10:59:21.155Z,9.37
2024-03-12T11:01:49.660Z,9.38
2024-03-12T11:04:17.405Z,9.41
2024-03-12T11:06:45.182Z,9.45
2024-03-12T11:09:19.339Z,9.61
2024-03-12T11:11:46.280Z,9.89
2024-03-12T11:14:13.511Z,10.11
2024-03-12T11:16:41.872Z,9.83
2024-03-12T11:19:20.689Z,9.51
2024-03-12T11:21:53.147Z,9.43
2024-03-12T11:24:44.147Z,9.42
2024-03-12T11:27:20.910Z,9.33
2024-03-12T11:30:12.871Z,9.07
2024-03-12T11:32:42.070Z,9.54
2024-03-12T11:35:18.222Z,9.36
2024-03-12T11:38:03.870Z,9.62
2024-03-12T11:40:39.330Z,9.71
2024-03-12T11:43:12.541Z,9.75
2024-03-12T11:45:48.479Z,9.77
2024-03-12T11:48:33.094Z,9.98
2024-03-12T11:51:01.245Z,10.34
2024-03-12T11:53:32.885Z,10.51
2024-03-12T11:56:11.606Z,9.80
2024-03-12T11:58:49.861Z,9.88
2024-03-12T12:01:25.834Z,10.39
2024-03-12T12:04:15.900Z,10.80
2024-03-12T12:06:44.513Z,11.03
2024-03-12T12:09:11.957Z,11.25
2024-03-12T12:11:40.235Z,10.86
2024-03-12T12:14:09.903Z,10.82
2024-03-12T12:16:37.698Z,10.49
2024-03-12T12:19:09.302Z,10.30
2024-03-12T12:21:37.791Z,10.07
2024-03-12T12:24:05.687Z,10.14
2024-03-12T12:26:37.833Z,9.98
2024-03-12T12:29:06.485Z,9.73
2024-03-12T12:31:37.818Z,9.86
2024-03-12T12:34:07.276Z,9.77
2024-03-12T12:36:40.189Z,9.85
2024-03-12T12:39:12.139Z,9.92
2024-03-12T12:41:44.581Z,9.92
2024-03-12T12:44:19.219Z,10.23
2024-03-12T12:46:47.551Z,10.33
2024-03-12T12:49:22.010Z,10.02
2024-03-12T12:51:49.336Z,10.22
2024-03-12T12:54:17.266Z,10.52
2024-03-12T12:56:45.716Z,10.13
2024-03-12T12:59:21.751Z,9.78
2024-03-12T13:01:49.787Z,10.09
2024-03-12T13:04:21.549Z,10.33
2024-03-12T13:06:48.641Z,10.44
2024-03-12T13:09:37.726Z,10.13
2024-03-12T13:12:09.058Z,10.10
2024-03-12T13:14:38.437Z,9.94
2024-03-12T13:17:06.863Z,9.67
2024-03-12T13:19:34.208Z,9.42
2024-03-12T13:22:03.692Z,9.53
2024-03-12T13:24:31.225Z,9.64
2024-03-12T13:26:59.621Z,9.61
2024-03-12T13:29:27.142Z,9.69
2024-03-12T13:31:54.915Z,9.54
2024-03-12T13:34:24.699Z,9.49
2024-03-12T13:36:53.019Z,9.39
2024-03-12T13:39:20.727Z,9.36
2024-03-12T13:41:48.068Z,9.30
2024-03-12T13:44:15.112Z,9.16
2024-03-12T13:46:44.490Z,9.31
2024-03-12T13:49:15.298Z,9.40
2024-03-12T13:51:44.161Z,9.27
2024-03-12T13:54:11.909Z,9.21
2024-03-12T13:56:39.129Z,8.96
2024-03-12T13:59:06.346Z,9.09
2024-03-12T14:01:34.090Z,9.33
2024-03-12T14:04:01.195Z,9.48
2024-03-12T14:06:31.730Z,9.48
2024-03-12T14:08:58.844Z,9.18
2024-03-12T14:11:27.083Z,9.04
2024-03-12T14:13:57.063Z,9.24
2024-03-12T14:16:25.433Z,9.31
2024-03-12T14:18:54.111Z,9.10
2024-03-12T14:21:21.110Z,9.06
2024-03-12T14:23:49.011Z,8.86
2024-03-12T14:26:19.281Z,8.98
2024-03-12T14:28:47.552Z,9.23
2024-03-12T14:31:17.982Z,8.95
2024-03-12T14:33:45.006Z,9.09
2024-03-12T14:36:12.023Z,8.90
2024-03-12T14:38:39.208Z,8.95
2024-03-12T14:41:07.838Z,8.95
2024-03-12T14:43:35.461Z,8.86
2024-03-12T14:46:04.329Z,8.85
2024-03-12T14:48:31.194Z,8.82
2024-03-12T14:51:01.000Z,9.10
2024-03-12T14:53:28.544Z,9.50
2024-03-12T14:55:56.024Z,9.76
2024-03-12T14:58:23.337Z,9.58
2024-03-12T15:00:50.481Z,9.86
2024-03-12T15:03:20.229Z,9.65
2024-03-12T15:05:50.156Z,9.86
2024-03-12T15:08:17.201Z,9.96
2024-03-12T15:10:44.114Z,9.81
2024-03-12T15:13:11.111Z,9.69
2024-03-12T15:15:38.313Z,10.07
2024-03-12T15:18:06.095Z,10.07
2024-03-12T15:20:32.858Z,10.24
2024-03-12T15:23:02.555Z,10.37
2024-03-12T15:25:29.543Z,10.64
2024-03-12T15:27:57.566Z,10.51
2024-03-12T15:30:25.673Z,9.83
2024-03-12T15:32:52.930Z,9.47
2024-03-12T15:35:22.643Z,9.15
2024-03-12T15:37:49.763Z,9.18
2024-03-12T15:40:19.735Z,9.29
2024-03-12T15:42:46.950Z,9.37
2024-03-12T15:45:16.972Z,9.60
2024-03-12T15:47:45.171Z,9.26
2024-03-12T15:50:13.614Z,9.39
2024-03-12T15:52:40.839Z,9.63
2024-03-12T15:55:09.656Z,9.58
2024-03-12T15:57:40.038Z,9.44
2024-03-12T16:00:09.716Z,9.28
2024-03-12T16:02:36.682Z,9.36
2024-03-12T16:05:06.820Z,9.33
2024-03-12T16:07:37.770Z,9.37
2024-03-12T16:10:09.946Z,9.42
2024-03-12T16:12:39.684Z,9.33
2024-03-12T16:15:10.920Z,9.21
2024-03-12T16:17:38.131Z,9.17
2024-03-12T16:20:14.712Z,9.28
2024-03-12T16:22:45.587Z,9.59
2024-03-12T16:25:15.111Z,9.50
2024-03-12T16:27:44.755Z,9.50
2024-03-12T16:30:15.088Z,9.35
2024-03-12T16:32:42.965Z,9.49
2024-03-12T16:35:10.145Z,9.61
2024-03-12T16:37:40.173Z,9.79
2024-03-12T16:40:09.430Z,9.65
2024-03-12T16:42:37.070Z,9.62
2024-03-12T16:45:05.031Z,9.24
2024-03-12T16:47:32.008Z,9.38
2024-03-12T16:50:01.543Z,9.58
2024-03-12T16:52:28.944Z,9.48
2024-03-12T16:54:56.169Z,9.72
2024-03-12T16:57:23.283Z,9.67
2024-03-12T16:59:57.187Z,9.19
2024-03-12T17:02:26.322Z,9.18
2024-03-12T17:04:57.779Z,8.80
2024-03-12T17:07:25.528Z,9.00
2024-03-12T17:09:52.645Z,9.04
2024-03-12T17:12:21.347Z,9.06
2024-03-12T17:14:49.105Z,9.14
2024-03-12T17:17:22.627Z,8.71
2024-03-12T17:19:49.639Z,8.91
2024-03-12T17:22:16.692Z,9.03
2024-03-12T17:24:43.883Z,9.39
2024-03-12T17:27:11.995Z,9.25
2024-03-12T17:29:39.062Z,9.53
2024-03-12T17:32:06.577Z,9.52
2024-03-12T17:34:33.799Z,9.50
2024-03-12T17:37:05.230Z,9.13
2024-03-12T17:39:35.627Z,9.03
2024-03-12T17:42:02.810Z,9.03
2024-03-12T17:44:30.087Z,8.71
2024-03-12T17:46:58.520Z,8.96
2024-03-12T17:49:26.967Z,9.09
2024-03-12T17:51:55.164Z,8.91
2024-03-12T17:54:22.982Z,8.83
2024-03-12T17:56:51.724Z,8.89
2024-03-12T17:59:20.541Z,8.79
2024-03-12T18:01:48.483Z,8.55
2024-03-12T18:04:16.382Z,8.98
2024-03-12T18:06:45.535Z,9.01
2024-03-12T18:09:13.752Z,8.80
2024-03-12T18:11:41.423Z,9.05
2024-03-12T18:14:10.677Z,8.82
2024-03-12T18:16:38.900Z,8.75
2024-03-12T18:19:09.325Z,8.85
2024-03-12T18:21:37.293Z,8.68
2024-03-12T18:24:06.755Z,8.65
2024-03-12T18:26:35.743Z,8.40
2024-03-12T18:29:04.623Z,8.45
2024-03-12T18:31:32.045Z,8.10
2024-03-12T18:33:59.430Z,8.11
2024-03-12T18:36:26.132Z,8.15
2024-03-12T18:38:53.031Z,7.62
2024-03-12T18:41:19.889Z,7.62
2024-03-12T18:43:48.261Z,7.78
2024-03-12T18:46:14.924Z,7.44
2024-03-12T18:48:42.807Z,7.69
2024-03-12T18:51:10.827Z,7.91
2024-03-12T18:53:39.293Z,7.91
2024-03-12T18:56:07.208Z,7.79
2024-03-12T18:58:35.047Z,7.35
2024-03-12T19:01:03.126Z,7.45
2024-03-12T19:03:51.915Z,7.20
2024-03-12T19:06:27.138Z,7.17
2024-03-12T19:08:57.738Z,7.29
2024-03-12T19:11:28.434Z,7.37
2024-03-12T19:13:56.885Z,7.41
2024-03-12T19:16:26.750Z,7.33
2024-03-12T19:18:55.068Z,7.22
2024-03-12T19:21:22.316Z,7.30
2024-03-12T19:23:52.674Z,7.36
2024-03-12T19:26:20.313Z,7.33
2024-03-12T19:28:47.260Z,7.43
2024-03-12T19:31:16.027Z,7.51
2024-03-12T19:33:45.184Z,7.45
2024-03-12T19:36:13.553Z,7.36
2024-03-12T19:38:40.733Z,7.43
2024-03-12T19:41:08.592Z,7.09
2024-03-12T19:43:38.561Z,7.35
2024-03-12T19:46:06.623Z,7.57
2024-03-12T19:48:34.648Z,7.40
2024-03-12T19:51:01.907Z,7.42
2024-03-12T19:53:28.842Z,6.81
2024-03-12T19:55:56.003Z,6.70
2024-03-12T19:58:23.126Z,6.86
2024-03-12T20:00:52.822Z,6.94
2024-03-12T20:03:23.970Z,7.02
2024-03-12T20:05:51.155Z,6.90
2024-03-12T20:08:18.204Z,6.70
2024-03-12T20:10:47.551Z,6.68
2024-03-12T20:13:14.767Z,6.55
2024-03-12T20:15:47.057Z,6.43
2024-03-12T20:18:15.185Z,6.35
2024-03-12T20:20:45.019Z,6.33
2024-03-12T20:23:12.373Z,6.50
2024-03-12T20:25:39.589Z,6.60
2024-03-12T20:28:11.237Z,6.59
2024-03-12T20:30:40.480Z,6.65
2024-03-12T20:33:09.985Z,6.72
2024-03-12T20:35:39.326Z,6.64
2024-03-12T20:38:10.351Z,6.83
2024-03-12T20:40:37.373Z,6.36
2024-03-12T20:43:07.179Z,6.28
2024-03-12T20:45:35.641Z,6.35
2024-03-12T20:48:02.992Z,6.44
2024-03-12T20:50:30.510Z,6.40
2024-03-12T20:52:57.548Z,6.17
2024-03-12T20:55:25.253Z,6.22
2024-03-12T20:57:52.419Z,6.27
2024-03-12T21:00:27.931Z,6.27
2024-03-12T21:02:55.248Z,6.07
2024-03-12T21:05:22.569Z,6.17
2024-03-12T21:07:52.863Z,5.87
2024-03-12T21:10:20.550Z,6.04
2024-03-12T21:12:52.281Z,5.96
2024-03-12T21:15:28.649Z,5.90
2024-03-12T21:17:55.543Z,5.84
2024-03-12T21:20:34.433Z,5.78
2024-03-12T21:23:01.498Z,5.63
2024-03-12T21:25:28.420Z,5.59
2024-03-12T21:27:55.271Z,5.87
2024-03-12T21:30:25.065Z,6.08
2024-03-12T21:32:52.467Z,6.04
2024-03-12T21:35:19.387Z,6.13
2024-03-12T21:37:46.364Z,6.20
2024-03-12T21:40:13.736Z,6.34
2024-03-12T21:42:43.876Z,5.98
2024-03-12T21:45:11.410Z,5.92
2024-03-12T21:47:38.974Z,5.90
2024-03-12T21:50:09.797Z,5.88
2024-03-12T21:52:37.353Z,5.90
2024-03-12T21:55:07.508Z,5.82
2024-03-12T21:57:38.058Z,5.94
2024-03-12T22:00:12.854Z,5.97
2024-03-12T22:02:40.321Z,6.16
2024-03-12T22:05:07.308Z,6.09
2024-03-12T22:07:38.238Z,6.16
2024-03-12T22:10:06.486Z,6.07
2024-03-12T22:12:33.314Z,5.90
2024-03-12T22:15:00.211Z,6.05
2024-03-12T22:17:27.135Z,6.08
2024-03-12T22:19:55.187Z,6.18
2024-03-12T22:22:22.252Z,6.47
2024-03-12T22:24:49.068Z,6.38
2024-03-12T22:27:15.818Z,6.15
2024-03-12T22:29:42.648Z,5.97
2024-03-12T22:32:15.386Z,5.94
2024-03-12T22:34:42.517Z,6.00
2024-03-12T22:37:10.152Z,6.12
2024-03-12T22:39:38.033Z,6.26
2024-03-12T22:42:06.302Z,6.07
2024-03-12T22:44:33.380Z,6.06
2024-03-12T22:47:02.123Z,6.23
2024-03-12T22:49:29.002Z,6.13
2024-03-12T22:51:57.208Z,6.06
2024-03-12T22:54:24.466Z,6.33
2024-03-12T22:56:51.400Z,6.56
2024-03-12T22:59:20.105Z,6.53
2024-03-12T23:01:54.203Z,6.66
2024-03-12T23:04:25.489Z,6.34
2024-03-12T23:06:52.650Z,6.37
2024-03-12T23:09:21.040Z,6.41
2024-03-12T23:11:47.826Z,6.36
2024-03-12T23:14:15.120Z,6.21
2024-03-12T23:16:41.986Z,6.29
2024-03-12T23:19:12.796Z,6.34
2024-03-12T23:21:40.000Z,6.23
2024-03-12T23:24:07.325Z,6.51
2024-03-12T23:26:34.170Z,6.53
2024-03-12T23:29:00.924Z,6.37
2024-03-12T23:31:27.739Z,6.18
2024-03-12T23:33:57.517Z,6.21
2024-03-12T23:36:29.216Z,6.39
2024-03-12T23:38:56.690Z,6.37
2024-03-12T23:41:24.928Z,6.65
2024-03-12T23:43:54.119Z,6.58
2024-03-12T23:46:21.900Z,6.23
2024-03-12T23:48:49.693Z,6.35
2024-03-12T23:51:16.664Z,6.42
2024-03-12T23:53:47.339Z,6.43
2024-03-12T23:56:14.113Z,6.43
2024-03-12T23:58:40.880Z,6.23
